sensor_id;sensor_type;location;lat;lon;timestamp;temperature;humidity
19868;DHT22;10096;51.112;6.776;2022-12-04T00:01:29;3.60;1.00
19868;DHT22;10096;51.112;6.776;2022-12-04T00:03:57;3.60;1.00
19868;DHT22;10096;51.112;6.776;2022-12-04T00:06:25;3.80;1.00
19868;DHT22;10096;51.112;6.776;2022-12-04T00:08:52;3.60;1.00
19868;DHT22;10096;51.112;6.776;2022-12-04T00:11:21;3.80;1.00
19868;DHT22;10096;51.112;6.776;2022-12-04T00:13:49;3.60;1.00
19868;DHT22;10096;51.112;6.776;2022-12-04T00:16:20;3.70;1.00
19868;DHT22;10096;51.112;6.776;2022-12-04T00:18:48;3.60;1.00
19868;DHT22;10096;51.112;6.776;2022-12-04T00:21:16;3.90;1.00
19868;DHT22;10096;51.112;6.776;2022-12-04T00:23:43;3.90;1.00
19868;DHT22;10096;51.112;6.776;2022-12-04T00:26:13;3.60;1.00
19868;DHT22;10096;51.112;6.776;2022-12-04T00:28:41;3.80;1.00
19868;DHT22;10096;51.112;6.776;2022-12-04T00:31:11;3.60;1.00
19868;DHT22;10096;51.112;6.776;2022-12-04T00:33:39;3.50;1.00
19868;DHT22;10096;51.112;6.776;2022-12-04T00:36:08;3.50;1.00
19868;DHT22;10096;51.112;6.776;2022-12-04T00:38:36;3.50;1.00
19868;DHT22;10096;51.112;6.776;2022-12-04T00:41:06;3.50;1.00
19868;DHT22;10096;51.112;6.776;2022-12-04T00:43:33;3.50;1.00
19868;DHT22;10096;51.112;6.776;2022-12-04T00:46:00;3.50;1.00
19868;DHT22;10096;51.112;6.776;2022-12-04T00:48:28;3.60;1.00
19868;DHT22;10096;51.112;6.776;2022-12-04T00:51:00;3.60;1.00
19868;DHT22;10096;51.112;6.776;2022-12-04T00:53:28;3.50;1.00
19868;DHT22;10096;51.112;6.776;2022-12-04T00:55:55;3.60;1.00
19868;DHT22;10096;51.112;6.776;2022-12-04T00:58:22;3.80;1.00
19868;DHT22;10096;51.112;6.776;2022-12-04T01:00:49;3.50;1.00
19868;DHT22;10096;51.112;6.776;2022-12-04T01:03:17;3.60;1.00
19868;DHT22;10096;51.112;6.776;2022-12-04T01:05:44;3.80;1.00
19868;DHT22;10096;51.112;6.776;2022-12-04T01:08:13;3.60;1.00
19868;DHT22;10096;51.112;6.776;2022-12-04T01:10:41;3.70;1.00
19868;DHT22;10096;51.112;6.776;2022-12-04T01:13:08;3.70;1.00
19868;DHT22;10096;51.112;6.776;2022-12-04T01:15:37;3.80;1.00
19868;DHT22;10096;51.112;6.776;2022-12-04T01:18:05;3.80;1.00
19868;DHT22;10096;51.112;6.776;2022-12-04T01:20:32;3.70;1.00
19868;DHT22;10096;51.112;6.776;2022-12-04T01:22:58;3.70;1.00
19868;DHT22;10096;51.112;6.776;2022-12-04T01:25:27;3.80;1.00
19868;DHT22;10096;51.112;6.776;2022-12-04T01:27:54;3.80;1.00
19868;DHT22;10096;51.112;6.776;2022-12-04T01:30:21;3.90;1.00
19868;DHT22;10096;51.112;6.776;2022-12-04T01:32:48;3.70;1.00
19868;DHT22;10096;51.112;6.776;2022-12-04T01:35:16;3.70;1.00
19868;DHT22;10096;51.112;6.776;2022-12-04T01:37:43;3.90;1.00
19868;DHT22;10096;51.112;6.776;2022-12-04T01:40:12;3.80;1.00
19868;DHT22;10096;51.112;6.776;2022-12-04T01:42:41;3.80;1.00
19868;DHT22;10096;51.112;6.776;2022-12-04T01:45:38;3.80;1.00
19868;DHT22;10096;51.112;6.776;2022-12-04T01:48:13;3.80;1.00
19868;DHT22;10096;51.112;6.776;2022-12-04T01:50:43;3.90;1.00
19868;DHT22;10096;51.112;6.776;2022-12-04T01:53:10;3.70;1.00
19868;DHT22;10096;51.112;6.776;2022-12-04T01:55:38;3.70;1.00
19868;DHT22;10096;51.112;6.776;2022-12-04T01:58:08;3.70;1.00
19868;DHT22;10096;51.112;6.776;2022-12-04T02:00:35;3.80;1.00
19868;DHT22;10096;51.112;6.776;2022-12-04T02:03:02;3.90;1.00
19868;DHT22;10096;51.112;6.776;2022-12-04T02:05:29;3.70;1.00
19868;DHT22;10096;51.112;6.776;2022-12-04T02:07:59;3.70;1.00
19868;DHT22;10096;51.112;6.776;2022-12-04T02:10:37;3.70;1.00
19868;DHT22;10096;51.112;6.776;2022-12-04T02:13:13;3.70;1.00
19868;DHT22;10096;51.112;6.776;2022-12-04T02:15:47;3.70;1.00
19868;DHT22;10096;51.112;6.776;2022-12-04T02:18:24;3.70;1.00
19868;DHT22;10096;51.112;6.776;2022-12-04T02:20:58;3.70;1.00
19868;DHT22;10096;51.112;6.776;2022-12-04T02:23:42;3.80;1.00
19868;DHT22;10096;51.112;6.776;2022-12-04T02:26:25;3.70;1.00
19868;DHT22;10096;51.112;6.776;2022-12-04T02:29:00;3.80;1.00
19868;DHT22;10096;51.112;6.776;2022-12-04T02:31:31;3.70;1.00
19868;DHT22;10096;51.112;6.776;2022-12-04T02:34:04;3.60;1.00
19868;DHT22;10096;51.112;6.776;2022-12-04T02:36:36;3.70;1.00
19868;DHT22;10096;51.112;6.776;2022-12-04T02:39:09;3.60;1.00
19868;DHT22;10096;51.112;6.776;2022-12-04T02:41:41;3.80;1.00
19868;DHT22;10096;51.112;6.776;2022-12-04T02:44:15;3.50;1.00
19868;DHT22;10096;51.112;6.776;2022-12-04T02:46:46;3.60;1.00
19868;DHT22;10096;51.112;6.776;2022-12-04T02:49:19;3.50;1.00
19868;DHT22;10096;51.112;6.776;2022-12-04T02:51:48;3.50;1.00
19868;DHT22;10096;51.112;6.776;2022-12-04T02:54:21;3.20;1.00
19868;DHT22;10096;51.112;6.776;2022-12-04T02:56:52;3.60;1.00
19868;DHT22;10096;51.112;6.776;2022-12-04T02:59:24;3.70;1.00
19868;DHT22;10096;51.112;6.776;2022-12-04T03:01:56;3.60;1.00
19868;DHT22;10096;51.112;6.776;2022-12-04T03:04:26;3.70;1.00
19868;DHT22;10096;51.112;6.776;2022-12-04T03:06:58;3.20;1.00
19868;DHT22;10096;51.112;6.776;2022-12-04T03:09:29;3.50;1.00
19868;DHT22;10096;51.112;6.776;2022-12-04T03:12:04;3.50;1.00
19868;DHT22;10096;51.112;6.776;2022-12-04T03:14:36;3.60;1.00
19868;DHT22;10096;51.112;6.776;2022-12-04T03:17:06;3.50;1.00
19868;DHT22;10096;51.112;6.776;2022-12-04T03:19:38;3.70;1.00
19868;DHT22;10096;51.112;6.776;2022-12-04T03:22:09;3.70;1.00
19868;DHT22;10096;51.112;6.776;2022-12-04T03:24:39;3.60;1.00
19868;DHT22;10096;51.112;6.776;2022-12-04T03:27:12;3.40;1.00
19868;DHT22;10096;51.112;6.776;2022-12-04T03:29:43;3.30;1.00
19868;DHT22;10096;51.112;6.776;2022-12-04T03:32:19;3.40;1.00
19868;DHT22;10096;51.112;6.776;2022-12-04T03:34:56;3.50;1.00
19868;DHT22;10096;51.112;6.776;2022-12-04T03:37:29;3.50;1.00
19868;DHT22;10096;51.112;6.776;2022-12-04T03:40:03;3.40;1.00
19868;DHT22;10096;51.112;6.776;2022-12-04T03:42:36;3.60;1.00
19868;DHT22;10096;51.112;6.776;2022-12-04T03:45:10;3.40;1.00
19868;DHT22;10096;51.112;6.776;2022-12-04T03:47:45;3.50;1.00
19868;DHT22;10096;51.112;6.776;2022-12-04T03:50:16;3.60;1.00
19868;DHT22;10096;51.112;6.776;2022-12-04T03:52:49;3.60;1.00
19868;DHT22;10096;51.112;6.776;2022-12-04T03:55:21;3.60;1.00
19868;DHT22;10096;51.112;6.776;2022-12-04T03:57:50;3.80;1.00
19868;DHT22;10096;51.112;6.776;2022-12-04T04:00:21;3.50;1.00
19868;DHT22;10096;51.112;6.776;2022-12-04T04:02:53;3.50;1.00
19868;DHT22;10096;51.112;6.776;2022-12-04T04:05:21;3.50;1.00
19868;DHT22;10096;51.112;6.776;2022-12-04T04:07:51;3.70;1.00
19868;DHT22;10096;51.112;6.776;2022-12-04T04:10:24;3.50;1.00
19868;DHT22;10096;51.112;6.776;2022-12-04T04:12:56;3.50;1.00
19868;DHT22;10096;51.112;6.776;2022-12-04T04:15:42;3.50;1.00
19868;DHT22;10096;51.112;6.776;2022-12-04T04:18:29;3.60;1.00
19868;DHT22;10096;51.112;6.776;2022-12-04T04:21:26;3.40;1.00
19868;DHT22;10096;51.112;6.776;2022-12-04T04:24:24;3.40;1.00
19868;DHT22;10096;51.112;6.776;2022-12-04T04:26:53;3.50;1.00
19868;DHT22;10096;51.112;6.776;2022-12-04T04:29:20;3.40;1.00
19868;DHT22;10096;51.112;6.776;2022-12-04T04:31:54;3.40;1.00
19868;DHT22;10096;51.112;6.776;2022-12-04T04:34:27;3.60;1.00
19868;DHT22;10096;51.112;6.776;2022-12-04T04:37:00;3.40;1.00
19868;DHT22;10096;51.112;6.776;2022-12-04T04:39:34;3.40;1.00
19868;DHT22;10096;51.112;6.776;2022-12-04T04:42:07;3.60;1.00
19868;DHT22;10096;51.112;6.776;2022-12-04T04:44:43;3.40;1.00
19868;DHT22;10096;51.112;6.776;2022-12-04T04:47:15;3.40;1.00
19868;DHT22;10096;51.112;6.776;2022-12-04T04:49:44;3.50;1.00
19868;DHT22;10096;51.112;6.776;2022-12-04T04:52:12;3.30;1.00
19868;DHT22;10096;51.112;6.776;2022-12-04T04:54:40;3.40;1.00
19868;DHT22;10096;51.112;6.776;2022-12-04T04:57:10;3.30;1.00
19868;DHT22;10096;51.112;6.776;2022-12-04T04:59:37;3.40;1.00
19868;DHT22;10096;51.112;6.776;2022-12-04T05:02:04;3.40;1.00
19868;DHT22;10096;51.112;6.776;2022-12-04T05:04:32;3.40;1.00
19868;DHT22;10096;51.112;6.776;2022-12-04T05:06:59;3.40;1.00
19868;DHT22;10096;51.112;6.776;2022-12-04T05:09:26;3.40;1.00
19868;DHT22;10096;51.112;6.776;2022-12-04T05:11:53;3.60;1.00
19868;DHT22;10096;51.112;6.776;2022-12-04T05:14:20;3.40;1.00
19868;DHT22;10096;51.112;6.776;2022-12-04T05:16:47;3.40;1.00
19868;DHT22;10096;51.112;6.776;2022-12-04T05:19:15;3.40;1.00
19868;DHT22;10096;51.112;6.776;2022-12-04T05:22:12;3.40;1.00
19868;DHT22;10096;51.112;6.776;2022-12-04T05:24:39;3.40;1.00
19868;DHT22;10096;51.112;6.776;2022-12-04T05:27:07;3.30;1.00
19868;DHT22;10096;51.112;6.776;2022-12-04T05:29:34;3.30;1.00
19868;DHT22;10096;51.112;6.776;2022-12-04T05:32:01;3.30;1.00
19868;DHT22;10096;51.112;6.776;2022-12-04T05:34:28;3.20;1.00
19868;DHT22;10096;51.112;6.776;2022-12-04T05:36:55;3.30;1.00
19868;DHT22;10096;51.112;6.776;2022-12-04T05:39:23;3.30;1.00
19868;DHT22;10096;51.112;6.776;2022-12-04T05:41:50;3.10;1.00
19868;DHT22;10096;51.112;6.776;2022-12-04T05:44:17;3.20;1.00
19868;DHT22;10096;51.112;6.776;2022-12-04T05:46:44;3.00;1.00
19868;DHT22;10096;51.112;6.776;2022-12-04T05:49:11;3.10;1.00
19868;DHT22;10096;51.112;6.776;2022-12-04T05:51:38;2.90;1.00
19868;DHT22;10096;51.112;6.776;2022-12-04T05:54:05;2.90;1.00
19868;DHT22;10096;51.112;6.776;2022-12-04T05:56:34;2.80;1.00
19868;DHT22;10096;51.112;6.776;2022-12-04T05:59:01;2.60;1.00
19868;DHT22;10096;51.112;6.776;2022-12-04T06:01:28;2.70;1.00
19868;DHT22;10096;51.112;6.776;2022-12-04T06:03:57;2.40;1.00
19868;DHT22;10096;51.112;6.776;2022-12-04T06:06:25;2.40;1.00
19868;DHT22;10096;51.112;6.776;2022-12-04T06:08:55;2.50;1.00
19868;DHT22;10096;51.112;6.776;2022-12-04T06:11:27;2.30;2.70
19868;DHT22;10096;51.112;6.776;2022-12-04T06:13:58;2.50;1.00
19868;DHT22;10096;51.112;6.776;2022-12-04T06:16:27;2.40;1.00
19868;DHT22;10096;51.112;6.776;2022-12-04T06:18:56;2.30;1.00
19868;DHT22;10096;51.112;6.776;2022-12-04T06:21:24;2.30;1.00
19868;DHT22;10096;51.112;6.776;2022-12-04T06:23:52;2.40;1.00
19868;DHT22;10096;51.112;6.776;2022-12-04T06:26:19;2.60;1.00
19868;DHT22;10096;51.112;6.776;2022-12-04T06:28:46;2.40;1.00
19868;DHT22;10096;51.112;6.776;2022-12-04T06:31:16;2.40;1.00
19868;DHT22;10096;51.112;6.776;2022-12-04T06:33:44;2.40;1.00
19868;DHT22;10096;51.112;6.776;2022-12-04T06:36:14;2.50;1.00
19868;DHT22;10096;51.112;6.776;2022-12-04T06:38:42;2.50;1.00
19868;DHT22;10096;51.112;6.776;2022-12-04T06:41:11;2.60;1.00
19868;DHT22;10096;51.112;6.776;2022-12-04T06:43:39;2.60;1.00
19868;DHT22;10096;51.112;6.776;2022-12-04T06:46:08;2.90;1.00
19868;DHT22;10096;51.112;6.776;2022-12-04T06:48:37;2.80;1.00
19868;DHT22;10096;51.112;6.776;2022-12-04T06:51:06;2.80;1.00
19868;DHT22;10096;51.112;6.776;2022-12-04T06:53:34;2.80;1.00
19868;DHT22;10096;51.112;6.776;2022-12-04T06:56:03;2.90;1.00
19868;DHT22;10096;51.112;6.776;2022-12-04T06:58:32;2.80;1.00
19868;DHT22;10096;51.112;6.776;2022-12-04T07:01:05;2.90;1.00
19868;DHT22;10096;51.112;6.776;2022-12-04T07:03:32;2.90;1.00
19868;DHT22;10096;51.112;6.776;2022-12-04T07:06:09;3.10;1.00
19868;DHT22;10096;51.112;6.776;2022-12-04T07:08:36;2.50;1.00
19868;DHT22;10096;51.112;6.776;2022-12-04T07:11:03;2.80;1.00
19868;DHT22;10096;51.112;6.776;2022-12-04T07:13:31;2.80;1.00
19868;DHT22;10096;51.112;6.776;2022-12-04T07:15:59;2.80;1.00
19868;DHT22;10096;51.112;6.776;2022-12-04T07:18:26;2.80;1.00
19868;DHT22;10096;51.112;6.776;2022-12-04T07:20:54;3.10;1.00
19868;DHT22;10096;51.112;6.776;2022-12-04T07:23:22;3.10;1.00
19868;DHT22;10096;51.112;6.776;2022-12-04T07:25:50;2.90;1.00
19868;DHT22;10096;51.112;6.776;2022-12-04T07:28:17;3.10;1.00
19868;DHT22;10096;51.112;6.776;2022-12-04T07:30:44;3.00;1.00
19868;DHT22;10096;51.112;6.776;2022-12-04T07:33:11;3.00;1.00
19868;DHT22;10096;51.112;6.776;2022-12-04T07:35:39;3.00;1.00
19868;DHT22;10096;51.112;6.776;2022-12-04T07:38:05;3.00;1.00
19868;DHT22;10096;51.112;6.776;2022-12-04T07:40:36;3.00;1.00
19868;DHT22;10096;51.112;6.776;2022-12-04T07:43:03;3.00;1.00
19868;DHT22;10096;51.112;6.776;2022-12-04T07:45:32;3.10;1.00
19868;DHT22;10096;51.112;6.776;2022-12-04T07:47:59;3.10;1.00
19868;DHT22;10096;51.112;6.776;2022-12-04T07:50:28;2.80;1.00
19868;DHT22;10096;51.112;6.776;2022-12-04T07:52:55;3.10;1.00
19868;DHT22;10096;51.112;6.776;2022-12-04T07:55:23;3.30;1.00
19868;DHT22;10096;51.112;6.776;2022-12-04T07:57:51;3.40;1.00
19868;DHT22;10096;51.112;6.776;2022-12-04T08:00:19;3.10;1.00
19868;DHT22;10096;51.112;6.776;2022-12-04T08:02:46;3.20;1.00
19868;DHT22;10096;51.112;6.776;2022-12-04T08:05:13;3.10;1.00
19868;DHT22;10096;51.112;6.776;2022-12-04T08:07:40;2.80;1.00
19868;DHT22;10096;51.112;6.776;2022-12-04T08:10:11;3.00;1.00
19868;DHT22;10096;51.112;6.776;2022-12-04T08:12:38;3.00;1.00
19868;DHT22;10096;51.112;6.776;2022-12-04T08:15:09;3.10;1.00
19868;DHT22;10096;51.112;6.776;2022-12-04T08:17:36;3.00;1.00
19868;DHT22;10096;51.112;6.776;2022-12-04T08:20:04;3.20;1.00
19868;DHT22;10096;51.112;6.776;2022-12-04T08:22:31;3.00;1.00
19868;DHT22;10096;51.112;6.776;2022-12-04T08:24:58;3.20;1.00
19868;DHT22;10096;51.112;6.776;2022-12-04T08:27:25;3.10;1.00
19868;DHT22;10096;51.112;6.776;2022-12-04T08:29:53;3.30;1.00
19868;DHT22;10096;51.112;6.776;2022-12-04T08:32:22;3.10;1.00
19868;DHT22;10096;51.112;6.776;2022-12-04T08:34:49;3.30;1.00
19868;DHT22;10096;51.112;6.776;2022-12-04T08:37:16;3.10;1.00
19868;DHT22;10096;51.112;6.776;2022-12-04T08:39:44;3.10;1.00
19868;DHT22;10096;51.112;6.776;2022-12-04T08:42:11;3.20;1.00
19868;DHT22;10096;51.112;6.776;2022-12-04T08:44:39;3.10;1.00
19868;DHT22;10096;51.112;6.776;2022-12-04T08:47:06;3.10;1.00
19868;DHT22;10096;51.112;6.776;2022-12-04T08:49:39;3.10;1.00
19868;DHT22;10096;51.112;6.776;2022-12-04T08:52:06;3.20;1.00
19868;DHT22;10096;51.112;6.776;2022-12-04T08:54:35;3.20;1.00
19868;DHT22;10096;51.112;6.776;2022-12-04T08:57:08;3.20;1.00
19868;DHT22;10096;51.112;6.776;2022-12-04T08:59:36;3.30;1.00
19868;DHT22;10096;51.112;6.776;2022-12-04T09:02:03;3.20;1.00
19868;DHT22;10096;51.112;6.776;2022-12-04T09:04:30;3.20;1.00
19868;DHT22;10096;51.112;6.776;2022-12-04T09:07:02;3.40;1.00
19868;DHT22;10096;51.112;6.776;2022-12-04T09:09:32;3.30;1.00
19868;DHT22;10096;51.112;6.776;2022-12-04T09:12:01;3.30;1.00
19868;DHT22;10096;51.112;6.776;2022-12-04T09:14:29;3.40;1.00
19868;DHT22;10096;51.112;6.776;2022-12-04T09:16:56;3.50;1.00
19868;DHT22;10096;51.112;6.776;2022-12-04T09:19:23;3.50;1.00
19868;DHT22;10096;51.112;6.776;2022-12-04T09:21:51;3.30;1.00
19868;DHT22;10096;51.112;6.776;2022-12-04T09:24:23;3.50;1.00
19868;DHT22;10096;51.112;6.776;2022-12-04T09:26:51;3.30;1.00
19868;DHT22;10096;51.112;6.776;2022-12-04T09:29:20;3.30;1.00
19868;DHT22;10096;51.112;6.776;2022-12-04T09:31:52;3.00;1.00
19868;DHT22;10096;51.112;6.776;2022-12-04T09:34:19;3.40;1.00
19868;DHT22;10096;51.112;6.776;2022-12-04T09:36:47;3.30;1.00
19868;DHT22;10096;51.112;6.776;2022-12-04T09:39:16;3.20;1.00
19868;DHT22;10096;51.112;6.776;2022-12-04T09:42:02;3.30;1.00
19868;DHT22;10096;51.112;6.776;2022-12-04T09:44:35;3.30;1.00
19868;DHT22;10096;51.112;6.776;2022-12-04T09:47:13;3.20;1.00
19868;DHT22;10096;51.112;6.776;2022-12-04T09:49:44;3.30;1.00
19868;DHT22;10096;51.112;6.776;2022-12-04T09:55:27;2.90;1.00
19868;DHT22;10096;51.112;6.776;2022-12-04T09:57:58;3.20;1.00
19868;DHT22;10096;51.112;6.776;2022-12-04T10:00:27;3.40;1.00
19868;DHT22;10096;51.112;6.776;2022-12-04T10:03:00;3.30;1.00
19868;DHT22;10096;51.112;6.776;2022-12-04T10:05:41;3.20;1.00
19868;DHT22;10096;51.112;6.776;2022-12-04T10:08:19;3.20;1.00
19868;DHT22;10096;51.112;6.776;2022-12-04T10:10:54;3.40;1.00
19868;DHT22;10096;51.112;6.776;2022-12-04T10:13:43;3.50;1.00
19868;DHT22;10096;51.112;6.776;2022-12-04T10:16:18;3.40;1.00
19868;DHT22;10096;51.112;6.776;2022-12-04T10:18:55;3.40;1.00
19868;DHT22;10096;51.112;6.776;2022-12-04T10:21:35;3.40;1.00
19868;DHT22;10096;51.112;6.776;2022-12-04T10:24:18;3.40;1.00
19868;DHT22;10096;51.112;6.776;2022-12-04T10:26:48;3.40;1.00
19868;DHT22;10096;51.112;6.776;2022-12-04T10:29:22;3.30;1.00
19868;DHT22;10096;51.112;6.776;2022-12-04T10:31:52;3.30;1.00
19868;DHT22;10096;51.112;6.776;2022-12-04T10:34:22;3.30;1.00
19868;DHT22;10096;51.112;6.776;2022-12-04T10:36:52;3.30;1.00
19868;DHT22;10096;51.112;6.776;2022-12-04T10:39:23;3.30;1.00
19868;DHT22;10096;51.112;6.776;2022-12-04T10:41:53;3.30;1.00
19868;DHT22;10096;51.112;6.776;2022-12-04T10:44:22;3.40;1.00
19868;DHT22;10096;51.112;6.776;2022-12-04T10:46:53;3.40;1.00
19868;DHT22;10096;51.112;6.776;2022-12-04T10:49:24;3.60;1.00
19868;DHT22;10096;51.112;6.776;2022-12-04T10:51:52;3.40;1.00
19868;DHT22;10096;51.112;6.776;2022-12-04T10:54:21;3.40;1.00
19868;DHT22;10096;51.112;6.776;2022-12-04T10:56:53;3.40;1.00
19868;DHT22;10096;51.112;6.776;2022-12-04T10:59:22;3.50;1.00
19868;DHT22;10096;51.112;6.776;2022-12-04T11:01:51;3.60;1.00
19868;DHT22;10096;51.112;6.776;2022-12-04T11:04:20;3.60;1.00
19868;DHT22;10096;51.112;6.776;2022-12-04T11:06:58;3.50;1.00
19868;DHT22;10096;51.112;6.776;2022-12-04T11:09:25;3.80;1.00
19868;DHT22;10096;51.112;6.776;2022-12-04T11:12:04;3.70;1.00
19868;DHT22;10096;51.112;6.776;2022-12-04T11:14:33;3.80;1.00
19868;DHT22;10096;51.112;6.776;2022-12-04T11:17:02;3.80;1.00
19868;DHT22;10096;51.112;6.776;2022-12-04T11:19:31;3.70;1.00
19868;DHT22;10096;51.112;6.776;2022-12-04T11:22:04;3.80;1.00
19868;DHT22;10096;51.112;6.776;2022-12-04T11:24:38;3.90;1.00
19868;DHT22;10096;51.112;6.776;2022-12-04T11:27:15;3.70;1.00
19868;DHT22;10096;51.112;6.776;2022-12-04T11:29:47;3.80;1.00
19868;DHT22;10096;51.112;6.776;2022-12-04T11:32:20;3.90;1.00
19868;DHT22;10096;51.112;6.776;2022-12-04T11:34:48;3.70;1.00
19868;DHT22;10096;51.112;6.776;2022-12-04T11:37:20;3.90;1.00
19868;DHT22;10096;51.112;6.776;2022-12-04T11:39:48;3.70;1.00
19868;DHT22;10096;51.112;6.776;2022-12-04T11:42:21;3.80;1.00
19868;DHT22;10096;51.112;6.776;2022-12-04T11:44:52;3.90;1.00
19868;DHT22;10096;51.112;6.776;2022-12-04T11:47:21;3.70;1.00
19868;DHT22;10096;51.112;6.776;2022-12-04T11:50:04;3.80;1.00
19868;DHT22;10096;51.112;6.776;2022-12-04T11:52:51;3.80;1.00
19868;DHT22;10096;51.112;6.776;2022-12-04T11:55:25;3.80;1.00
19868;DHT22;10096;51.112;6.776;2022-12-04T11:58:06;4.00;1.00
19868;DHT22;10096;51.112;6.776;2022-12-04T12:00:45;3.90;1.00
19868;DHT22;10096;51.112;6.776;2022-12-04T12:03:22;4.00;1.00
19868;DHT22;10096;51.112;6.776;2022-12-04T12:09:07;4.00;1.00
19868;DHT22;10096;51.112;6.776;2022-12-04T12:11:41;4.00;1.00
19868;DHT22;10096;51.112;6.776;2022-12-04T12:14:17;4.00;1.00
19868;DHT22;10096;51.112;6.776;2022-12-04T12:17:05;4.00;1.00
19868;DHT22;10096;51.112;6.776;2022-12-04T12:20:02;3.90;1.00
19868;DHT22;10096;51.112;6.776;2022-12-04T12:22:48;4.10;1.00
19868;DHT22;10096;51.112;6.776;2022-12-04T12:25:27;3.90;1.00
19868;DHT22;10096;51.112;6.776;2022-12-04T12:28:10;4.00;1.00
19868;DHT22;10096;51.112;6.776;2022-12-04T12:30:49;4.00;1.00
19868;DHT22;10096;51.112;6.776;2022-12-04T12:33:22;4.30;1.00
19868;DHT22;10096;51.112;6.776;2022-12-04T12:35:56;4.30;1.00
19868;DHT22;10096;51.112;6.776;2022-12-04T12:38:28;4.30;1.00
19868;DHT22;10096;51.112;6.776;2022-12-04T12:41:04;4.60;1.00
19868;DHT22;10096;51.112;6.776;2022-12-04T12:43:34;4.60;1.00
19868;DHT22;10096;51.112;6.776;2022-12-04T12:46:05;4.30;1.00
19868;DHT22;10096;51.112;6.776;2022-12-04T12:48:41;4.30;1.00
19868;DHT22;10096;51.112;6.776;2022-12-04T12:51:24;4.20;1.00
19868;DHT22;10096;51.112;6.776;2022-12-04T12:53:56;4.20;1.00
19868;DHT22;10096;51.112;6.776;2022-12-04T12:56:31;4.30;1.00
19868;DHT22;10096;51.112;6.776;2022-12-04T12:59:02;4.50;1.00
19868;DHT22;10096;51.112;6.776;2022-12-04T13:01:38;4.30;1.00
19868;DHT22;10096;51.112;6.776;2022-12-04T13:04:13;4.50;1.00
19868;DHT22;10096;51.112;6.776;2022-12-04T13:06:46;4.50;1.00
19868;DHT22;10096;51.112;6.776;2022-12-04T13:09:17;4.40;1.00
19868;DHT22;10096;51.112;6.776;2022-12-04T13:11:49;4.50;1.00
19868;DHT22;10096;51.112;6.776;2022-12-04T13:14:18;4.60;1.00
19868;DHT22;10096;51.112;6.776;2022-12-04T13:16:47;4.40;1.00
19868;DHT22;10096;51.112;6.776;2022-12-04T13:19:18;4.50;1.00
19868;DHT22;10096;51.112;6.776;2022-12-04T13:21:53;4.50;1.00
19868;DHT22;10096;51.112;6.776;2022-12-04T13:24:55;4.50;1.00
19868;DHT22;10096;51.112;6.776;2022-12-04T13:27:34;4.50;1.00
19868;DHT22;10096;51.112;6.776;2022-12-04T13:30:09;4.40;1.00
19868;DHT22;10096;51.112;6.776;2022-12-04T13:33:07;4.50;1.00
19868;DHT22;10096;51.112;6.776;2022-12-04T13:39:24;4.30;1.00
19868;DHT22;10096;51.112;6.776;2022-12-04T13:41:57;4.30;1.00
19868;DHT22;10096;51.112;6.776;2022-12-04T13:44:30;4.50;1.00
19868;DHT22;10096;51.112;6.776;2022-12-04T13:47:00;4.30;1.00
19868;DHT22;10096;51.112;6.776;2022-12-04T13:49:32;4.30;1.00
19868;DHT22;10096;51.112;6.776;2022-12-04T13:52:03;4.30;1.00
19868;DHT22;10096;51.112;6.776;2022-12-04T13:54:33;4.40;1.00
19868;DHT22;10096;51.112;6.776;2022-12-04T13:57:19;4.40;1.00
19868;DHT22;10096;51.112;6.776;2022-12-04T13:59:47;4.40;1.00
19868;DHT22;10096;51.112;6.776;2022-12-04T14:02:26;4.40;1.00
19868;DHT22;10096;51.112;6.776;2022-12-04T14:04:59;4.50;1.00
19868;DHT22;10096;51.112;6.776;2022-12-04T14:07:31;4.50;1.00
19868;DHT22;10096;51.112;6.776;2022-12-04T14:10:04;4.40;1.00
19868;DHT22;10096;51.112;6.776;2022-12-04T14:12:35;4.50;1.00
19868;DHT22;10096;51.112;6.776;2022-12-04T14:15:06;4.50;1.00
19868;DHT22;10096;51.112;6.776;2022-12-04T14:17:35;4.50;1.00
19868;DHT22;10096;51.112;6.776;2022-12-04T14:20:08;4.50;1.00
19868;DHT22;10096;51.112;6.776;2022-12-04T14:22:50;4.50;1.00
19868;DHT22;10096;51.112;6.776;2022-12-04T14:25:33;4.40;1.00
19868;DHT22;10096;51.112;6.776;2022-12-04T14:28:25;4.40;1.00
19868;DHT22;10096;51.112;6.776;2022-12-04T14:31:04;4.50;1.00
19868;DHT22;10096;51.112;6.776;2022-12-04T14:33:37;4.50;1.00
19868;DHT22;10096;51.112;6.776;2022-12-04T14:36:08;4.60;1.00
19868;DHT22;10096;51.112;6.776;2022-12-04T14:38:37;4.60;1.00
19868;DHT22;10096;51.112;6.776;2022-12-04T14:41:09;4.50;1.00
19868;DHT22;10096;51.112;6.776;2022-12-04T14:43:38;4.50;1.00
19868;DHT22;10096;51.112;6.776;2022-12-04T14:46:11;4.70;1.00
19868;DHT22;10096;51.112;6.776;2022-12-04T14:48:47;4.60;1.00
19868;DHT22;10096;51.112;6.776;2022-12-04T14:51:27;4.60;1.00
19868;DHT22;10096;51.112;6.776;2022-12-04T14:54:01;4.60;1.00
19868;DHT22;10096;51.112;6.776;2022-12-04T14:56:46;4.50;1.00
19868;DHT22;10096;51.112;6.776;2022-12-04T14:59:17;4.50;1.00
19868;DHT22;10096;51.112;6.776;2022-12-04T15:01:48;4.50;1.00
19868;DHT22;10096;51.112;6.776;2022-12-04T15:04:22;4.50;1.00
19868;DHT22;10096;51.112;6.776;2022-12-04T15:06:49;4.70;1.00
19868;DHT22;10096;51.112;6.776;2022-12-04T15:09:19;4.50;1.00
19868;DHT22;10096;51.112;6.776;2022-12-04T15:12:18;4.40;1.00
19868;DHT22;10096;51.112;6.776;2022-12-04T15:15:10;4.40;1.00
19868;DHT22;10096;51.112;6.776;2022-12-04T15:17:38;4.40;1.00
19868;DHT22;10096;51.112;6.776;2022-12-04T15:20:16;4.30;1.00
19868;DHT22;10096;51.112;6.776;2022-12-04T15:22:46;4.30;1.00
19868;DHT22;10096;51.112;6.776;2022-12-04T15:25:17;4.30;1.00
19868;DHT22;10096;51.112;6.776;2022-12-04T15:27:48;4.30;1.00
19868;DHT22;10096;51.112;6.776;2022-12-04T15:30:19;4.50;1.00
19868;DHT22;10096;51.112;6.776;2022-12-04T15:32:49;4.30;1.00
19868;DHT22;10096;51.112;6.776;2022-12-04T15:35:22;4.40;1.00
19868;DHT22;10096;51.112;6.776;2022-12-04T15:37:51;4.50;1.00
19868;DHT22;10096;51.112;6.776;2022-12-04T15:40:22;4.30;1.00
19868;DHT22;10096;51.112;6.776;2022-12-04T15:42:52;4.20;1.00
19868;DHT22;10096;51.112;6.776;2022-12-04T15:45:37;4.20;1.00
19868;DHT22;10096;51.112;6.776;2022-12-04T15:48:06;4.30;1.00
19868;DHT22;10096;51.112;6.776;2022-12-04T15:50:34;4.20;1.00
19868;DHT22;10096;51.112;6.776;2022-12-04T15:53:06;4.30;1.00
19868;DHT22;10096;51.112;6.776;2022-12-04T15:55:37;4.20;1.00
19868;DHT22;10096;51.112;6.776;2022-12-04T15:58:17;4.40;1.00
19868;DHT22;10096;51.112;6.776;2022-12-04T16:00:46;4.30;1.00
19868;DHT22;10096;51.112;6.776;2022-12-04T16:03:24;4.30;1.00
19868;DHT22;10096;51.112;6.776;2022-12-04T16:06:04;4.50;1.00
19868;DHT22;10096;51.112;6.776;2022-12-04T16:08:33;4.30;1.00
19868;DHT22;10096;51.112;6.776;2022-12-04T16:11:02;4.40;1.00
19868;DHT22;10096;51.112;6.776;2022-12-04T16:13:37;4.30;1.00
19868;DHT22;10096;51.112;6.776;2022-12-04T16:16:06;4.40;1.00
19868;DHT22;10096;51.112;6.776;2022-12-04T16:18:33;4.30;1.00
19868;DHT22;10096;51.112;6.776;2022-12-04T16:21:01;4.30;1.00
19868;DHT22;10096;51.112;6.776;2022-12-04T16:23:31;4.30;1.00
19868;DHT22;10096;51.112;6.776;2022-12-04T16:25:59;4.40;1.00
19868;DHT22;10096;51.112;6.776;2022-12-04T16:28:37;4.50;1.00
19868;DHT22;10096;51.112;6.776;2022-12-04T16:31:06;4.40;1.00
19868;DHT22;10096;51.112;6.776;2022-12-04T16:33:34;4.40;1.00
19868;DHT22;10096;51.112;6.776;2022-12-04T16:36:02;4.60;1.00
19868;DHT22;10096;51.112;6.776;2022-12-04T16:38:31;4.20;1.00
19868;DHT22;10096;51.112;6.776;2022-12-04T16:40:59;4.50;1.00